Terminal Aerodrome Forecast
Issued by NWS Paducah, KY

Home | Current Version | Previous Version | Graphics & Text | Print | Product List | Glossary On
Versions: 1 2 3 4 5 6 7 8 9 10 11 12 13 14 15 16 17 18 19 20 21 22 23 24
000
FTUS43 KPAH 291441 AAB
TAFPAH
TAF AMD
KPAH 291441Z 2915/3012 11009KT 6SM -SHRA BKN045 OVC060
     FM291600 08007KT P6SM SCT060 BKN250
     FM292300 13007KT P6SM BKN050
     FM300800 14007KT 4SM TSRA BR BKN025CB=

USA.gov is the U.S. government's official web portal to all federal, state and local government web resources and services.